Time;durP1;ratioP1;P1;durP2;ratioP2;P2;SDS_P1;SDS_P2;PMS_P1;PMS_P2;Temp;Humidity;BMP_temperature;BMP_pressure;BME280_temperature;BME280_humidity;BME280_pressure;Samples;Min_cycle;Max_cycle;Signal;HPM_P1;HPM_P2
2023/06/18 00:02:11;;;;;;;;;;;;;;;19.63;60.35;100375.00;7349453;19;19922;-59
2023/06/18 00:04:37;;;;;;;;;;;;;;;19.92;60.21;100429.56;7352679;19;20008;-59
2023/06/18 00:07:02;;;;;;;;;;;;;;;19.89;60.80;100429.75;7351270;19;20653;-60
2023/06/18 00:09:27;;;;;;;;;;;;;;;19.86;60.21;100432.59;7352289;19;19915;-59
2023/06/18 00:11:52;;;;;;;;;;;;;;;19.83;60.07;100429.31;7351571;19;20038;-59
2023/06/18 00:14:18;;;;;;;;;;;;;;;19.79;59.64;100423.38;7352726;19;19923;-59
2023/06/18 00:16:43;;;;;;;;;;;;;;;19.43;60.42;100374.44;7351876;19;20009;-60
2023/06/18 00:19:08;;;;;;;;;;;;;;;19.70;60.45;100419.50;7348120;19;20021;-59
2023/06/18 00:21:34;;;;;;;;;;;;;;;19.64;60.17;100419.91;7349920;19;20703;-60
2023/06/18 00:23:59;;;;;;;;;;;;;;;19.39;60.59;100383.53;7346872;19;19926;-60
2023/06/18 00:26:25;;;;;;;;;;;;;;;19.58;61.06;100424.72;7351304;19;19927;-60
2023/06/18 00:28:51;;;;;;;;;;;;;;;19.55;60.96;100419.63;7346050;19;19943;-59
2023/06/18 00:31:17;;;;;;;;;;;;;;;19.52;59.99;100425.13;7350416;19;19926;-59
2023/06/18 00:33:43;;;;;;;;;;;;;;;19.50;60.35;100421.72;7351845;19;19943;-59
2023/06/18 00:36:08;;;;;;;;;;;;;;;19.47;60.99;100419.28;7351522;19;19919;-59
2023/06/18 00:38:35;;;;;;;;;;;;;;;19.44;60.74;100415.88;7347104;19;20454;-59
2023/06/18 00:41:00;;;;;;;;;;;;;;;19.42;60.95;100424.88;7350398;19;19915;-59
2023/06/18 00:43:28;;;;;;;;;;;;;;;19.40;61.67;100432.88;7354857;19;20188;-59
2023/06/18 00:46:01;;;;;;;;;;;;;;;19.39;61.54;100433.84;7358021;19;20038;-60
2023/06/18 00:48:26;;;;;;;;;;;;;;;19.38;61.41;100440.09;7352637;19;19935;-59
2023/06/18 00:50:53;;;;;;;;;;;;;;;19.38;60.66;100429.50;7357567;19;19919;-60
2023/06/18 00:53:19;;;;;;;;;;;;;;;19.37;60.81;100435.75;7356055;19;20270;-60
2023/06/18 00:55:44;;;;;;;;;;;;;;;19.35;61.34;100427.03;7358707;19;20666;-60
2023/06/18 00:58:09;;;;;;;;;;;;;;;19.33;61.35;100426.31;7358485;19;20002;-60
2023/06/18 01:00:35;;;;;;;;;;;;;;;19.32;60.50;100429.91;7356915;19;20725;-59
2023/06/18 01:03:02;;;;;;;;;;;;;;;19.31;61.57;100425.56;7358170;19;19929;-59
2023/06/18 01:05:31;;;;;;;;;;;;;;;19.28;61.03;100417.78;7356569;19;20473;-60
2023/06/18 01:07:57;;;;;;;;;;;;;;;19.27;61.11;100416.09;7357308;19;20622;-59
2023/06/18 01:10:28;;;;;;;;;;;;;;;19.25;61.55;100415.34;7356591;19;19919;-59
2023/06/18 01:12:54;;;;;;;;;;;;;;;19.23;61.22;100416.38;7358497;19;19952;-59
2023/06/18 01:15:19;;;;;;;;;;;;;;;19.21;61.13;100418.25;7355325;19;19926;-59
2023/06/18 01:17:48;;;;;;;;;;;;;;;19.16;60.79;100414.13;7359306;19;19918;-59
2023/06/18 01:20:15;;;;;;;;;;;;;;;19.13;61.37;100413.47;7346387;19;19922;-60
2023/06/18 01:22:58;;;;;;;;;;;;;;;19.09;61.06;100414.59;7359962;19;20000;-59
2023/06/18 01:25:26;;;;;;;;;;;;;;;19.04;60.95;100414.03;7354045;19;19929;-59
2023/06/18 01:27:53;;;;;;;;;;;;;;;19.00;61.53;100415.16;7359921;19;20028;-59
2023/06/18 01:30:20;;;;;;;;;;;;;;;18.95;60.95;100409.31;7361676;19;19934;-60
2023/06/18 01:32:45;;;;;;;;;;;;;;;18.91;60.92;100408.69;7360322;19;19921;-60
2023/06/18 01:35:15;;;;;;;;;;;;;;;18.87;60.98;100410.66;7359606;19;20256;-60
2023/06/18 01:37:46;;;;;;;;;;;;;;;18.84;60.82;100408.19;7361206;19;19933;-60
2023/06/18 01:40:29;;;;;;;;;;;;;;;18.80;61.28;100411.94;7359712;19;20490;-59
2023/06/18 01:43:01;;;;;;;;;;;;;;;18.75;61.27;100403.44;7358189;19;19914;-60
2023/06/18 01:45:33;;;;;;;;;;;;;;;18.72;61.81;100403.66;7356205;19;19918;-59
2023/06/18 01:48:01;;;;;;;;;;;;;;;18.70;61.52;100405.53;7360332;19;19944;-60
2023/06/18 01:50:27;;;;;;;;;;;;;;;18.67;61.64;100406.56;7359630;19;19923;-60
2023/06/18 01:52:53;;;;;;;;;;;;;;;18.67;61.96;100408.34;7355259;19;19918;-60
2023/06/18 01:55:20;;;;;;;;;;;;;;;18.67;62.29;100411.00;7359427;19;19918;-60
2023/06/18 01:57:45;;;;;;;;;;;;;;;18.68;62.48;100415.38;7353699;19;19919;-60
2023/06/18 02:00:11;;;;;;;;;;;;;;;18.68;62.72;100407.44;7357822;19;19922;-60
2023/06/18 02:02:36;;;;;;;;;;;;;;;18.69;62.47;100411.78;7360147;19;19923;-59
2023/06/18 02:05:01;;;;;;;;;;;;;;;18.70;62.68;100413.47;7358473;19;19930;-60
2023/06/18 02:07:27;;;;;;;;;;;;;;;18.72;62.96;100410.75;7353887;19;20689;-60
2023/06/18 02:09:52;;;;;;;;;;;;;;;18.74;63.34;100408.84;7357946;19;19930;-60
2023/06/18 02:12:17;;;;;;;;;;;;;;;18.76;63.21;100399.88;7353438;19;19915;-60
2023/06/18 02:14:42;;;;;;;;;;;;;;;18.79;63.37;100399.69;7358205;19;20275;-59
2023/06/18 02:17:08;;;;;;;;;;;;;;;18.81;63.39;100392.53;7360490;19;19978;-59
2023/06/18 02:19:33;;;;;;;;;;;;;;;18.84;63.49;100389.66;7357468;19;19949;-60
2023/06/18 02:21:58;;;;;;;;;;;;;;;18.86;62.92;100384.28;7356003;19;20005;-60
2023/06/18 02:24:23;;;;;;;;;;;;;;;18.88;62.97;100377.94;7356209;19;19922;-60
2023/06/18 02:26:49;;;;;;;;;;;;;;;18.89;63.24;100377.00;7353873;19;19923;-60
2023/06/18 02:29:14;;;;;;;;;;;;;;;18.70;63.00;100341.19;7349632;19;20030;-60
2023/06/18 02:31:40;;;;;;;;;;;;;;;18.92;62.92;100368.88;7354906;19;19927;-60
2023/06/18 02:34:05;;;;;;;;;;;;;;;18.94;63.50;100363.47;7353947;19;19998;-59
2023/06/18 02:36:32;;;;;;;;;;;;;;;18.97;63.23;100365.09;7351934;19;19919;-60
2023/06/18 02:38:57;;;;;;;;;;;;;;;18.98;63.45;100375.59;7354190;19;19994;-59
2023/06/18 02:41:22;;;;;;;;;;;;;;;19.00;63.52;100364.88;7355391;19;20336;-59
2023/06/18 02:43:49;;;;;;;;;;;;;;;19.02;63.80;100370.97;7351110;19;19918;-60
2023/06/18 02:46:18;;;;;;;;;;;;;;;19.03;63.83;100362.06;7352048;19;19982;-59
2023/06/18 02:48:43;;;;;;;;;;;;;;;19.04;63.86;100372.53;7353751;19;20788;-59
2023/06/18 02:51:08;;;;;;;;;;;;;;;19.07;64.22;100371.50;7353881;19;19956;-59
2023/06/18 02:53:33;;;;;;;;;;;;;;;19.07;63.82;100366.22;7354057;19;19935;-60
2023/06/18 02:55:59;;;;;;;;;;;;;;;19.09;64.24;100359.03;7353949;19;19918;-59
2023/06/18 02:58:27;;;;;;;;;;;;;;;19.10;63.86;100353.63;7350894;19;19926;-60
2023/06/18 03:00:54;;;;;;;;;;;;;;;19.11;64.28;100355.34;7353758;19;19923;-60
2023/06/18 03:03:19;;;;;;;;;;;;;;;19.13;64.10;100361.38;7352844;19;19919;-59
2023/06/18 03:05:45;;;;;;;;;;;;;;;19.15;64.01;100358.63;7353479;19;19926;-60
2023/06/18 03:08:10;;;;;;;;;;;;;;;19.15;63.83;100364.75;7350060;19;19915;-59
2023/06/18 03:10:36;;;;;;;;;;;;;;;19.16;64.08;100366.50;7354608;19;19921;-60
2023/06/18 03:13:01;;;;;;;;;;;;;;;19.17;63.65;100368.19;7344966;19;19914;-60
2023/06/18 03:15:26;;;;;;;;;;;;;;;19.18;63.95;100369.03;7348515;19;19918;-59
2023/06/18 03:17:51;;;;;;;;;;;;;;;19.18;63.78;100363.75;7353927;19;20576;-60
2023/06/18 03:20:18;;;;;;;;;;;;;;;19.18;63.87;100367.22;7351409;19;19940;-60
2023/06/18 03:22:43;;;;;;;;;;;;;;;19.17;63.63;100362.88;7349418;19;19922;-59
2023/06/18 03:25:08;;;;;;;;;;;;;;;19.16;63.66;100366.50;7349644;19;19930;-59
2023/06/18 03:27:33;;;;;;;;;;;;;;;19.15;63.24;100359.47;7162443;19;3547124;-59
2023/06/18 03:29:59;;;;;;;;;;;;;;;18.92;63.46;100325.69;7339017;19;19922;-60
2023/06/18 03:32:24;;;;;;;;;;;;;;;19.12;63.62;100357.03;7354444;19;19919;-59
2023/06/18 03:34:50;;;;;;;;;;;;;;;19.11;63.67;100355.34;7352254;19;19955;-61
2023/06/18 03:37:17;;;;;;;;;;;;;;;19.10;63.67;100350.13;7358786;19;19990;-60
2023/06/18 03:39:42;;;;;;;;;;;;;;;19.09;63.12;100351.94;7353574;19;19934;-59
2023/06/18 03:42:08;;;;;;;;;;;;;;;19.08;63.56;100350.22;7355225;19;19915;-59
2023/06/18 03:44:33;;;;;;;;;;;;;;;19.08;63.26;100349.38;7346657;19;20034;-60
2023/06/18 03:46:58;;;;;;;;;;;;;;;19.06;63.28;100343.31;7355538;19;20311;-59
2023/06/18 03:49:24;;;;;;;;;;;;;;;19.05;63.33;100336.34;7356010;19;20240;-60
2023/06/18 03:51:49;;;;;;;;;;;;;;;19.03;63.51;100348.84;7352918;19;19919;-59
2023/06/18 03:54:14;;;;;;;;;;;;;;;19.01;63.42;100345.41;7356056;19;20030;-59
2023/06/18 03:56:39;;;;;;;;;;;;;;;19.01;63.66;100340.13;7333314;19;19919;-59
2023/06/18 03:59:05;;;;;;;;;;;;;;;19.00;63.11;100343.72;7355643;19;19918;-60
2023/06/18 04:01:31;;;;;;;;;;;;;;;18.99;63.88;100347.31;7357792;19;20447;-60
2023/06/18 04:03:56;;;;;;;;;;;;;;;18.76;63.85;100302.00;7351777;19;19949;-60
2023/06/18 04:06:21;;;;;;;;;;;;;;;18.98;63.80;100350.91;7353525;19;19923;-60
2023/06/18 04:08:46;;;;;;;;;;;;;;;18.98;64.25;100346.47;7354707;19;19960;-59
2023/06/18 04:11:11;;;;;;;;;;;;;;;18.99;64.30;100342.03;7357669;19;20271;-60
2023/06/18 04:13:37;;;;;;;;;;;;;;;19.00;63.86;100346.38;7353340;19;20370;-60
2023/06/18 04:16:02;;;;;;;;;;;;;;;18.99;63.93;100353.47;7354218;19;20012;-59
2023/06/18 04:18:29;;;;;;;;;;;;;;;18.99;64.17;100358.75;7351520;19;20322;-60
2023/06/18 04:20:54;;;;;;;;;;;;;;;18.99;64.39;100345.53;7357694;19;19923;-59
2023/06/18 04:23:20;;;;;;;;;;;;;;;19.00;64.38;100354.31;7353985;19;20982;-59
2023/06/18 04:25:45;;;;;;;;;;;;;;;19.01;64.11;100348.06;7357066;19;19953;-60
2023/06/18 04:28:10;;;;;;;;;;;;;;;19.01;64.17;100350.72;7349624;19;20348;-60
2023/06/18 04:30:35;;;;;;;;;;;;;;;19.01;64.50;100345.41;7356387;19;19911;-60
2023/06/18 04:33:01;;;;;;;;;;;;;;;19.01;64.67;100346.28;7352289;19;19919;-59
2023/06/18 04:35:26;;;;;;;;;;;;;;;19.02;64.46;100336.56;7351711;19;20476;-60
2023/06/18 04:37:51;;;;;;;;;;;;;;;19.03;64.66;100343.53;7353121;19;19994;-59
2023/06/18 04:40:18;;;;;;;;;;;;;;;19.04;64.41;100343.44;7356183;19;19915;-60
2023/06/18 04:42:43;;;;;;;;;;;;;;;19.05;64.59;100349.56;7352929;19;19930;-60
2023/06/18 04:45:09;;;;;;;;;;;;;;;19.05;64.69;100352.22;7355034;19;20264;-59
2023/06/18 04:47:34;;;;;;;;;;;;;;;19.07;64.76;100353.00;7354286;19;19918;-59
2023/06/18 04:50:01;;;;;;;;;;;;;;;18.76;63.53;100291.44;7355993;19;19919;-60
2023/06/18 04:52:26;;;;;;;;;;;;;;;19.08;63.96;100347.59;7353030;19;19923;-60
2023/06/18 04:54:55;;;;;;;;;;;;;;;19.07;63.83;100350.34;7354029;19;19940;-59
2023/06/18 04:57:20;;;;;;;;;;;;;;;19.06;63.89;100343.31;7352562;19;19930;-59
2023/06/18 04:59:46;;;;;;;;;;;;;;;19.06;64.05;100344.19;7355139;19;20217;-59
2023/06/18 05:02:11;;;;;;;;;;;;;;;19.04;64.28;100340.78;7346969;19;19914;-60
2023/06/18 05:04:36;;;;;;;;;;;;;;;19.04;64.45;100345.22;7356174;19;19943;-60
2023/06/18 05:07:02;;;;;;;;;;;;;;;19.05;64.50;100336.34;7351718;19;19922;-60
2023/06/18 05:09:28;;;;;;;;;;;;;;;19.06;64.63;100353.91;7355101;19;19915;-59
2023/06/18 05:11:53;;;;;;;;;;;;;;;19.06;64.23;100357.44;7349389;19;20317;-60
2023/06/18 05:14:19;;;;;;;;;;;;;;;19.09;64.26;100357.22;7352160;19;19919;-60
2023/06/18 05:16:45;;;;;;;;;;;;;;;19.09;63.92;100359.88;7349381;19;19932;-60
2023/06/18 05:19:10;;;;;;;;;;;;;;;19.11;64.01;100362.41;7352614;19;19919;-60
2023/06/18 05:21:35;;;;;;;;;;;;;;;19.11;63.97;100354.47;7353769;19;19919;-60
2023/06/18 05:24:00;;;;;;;;;;;;;;;19.12;64.44;100357.03;7353397;19;20028;-60
2023/06/18 05:26:26;;;;;;;;;;;;;;;19.13;64.28;100355.25;7348142;19;19965;-60
2023/06/18 05:28:51;;;;;;;;;;;;;;;19.14;64.78;100356.94;7356220;19;19918;-60
2023/06/18 05:31:17;;;;;;;;;;;;;;;19.15;64.71;100350.69;7360508;19;20538;-60
2023/06/18 05:33:42;;;;;;;;;;;;;;;19.17;64.21;100362.03;7356939;19;19945;-59
2023/06/18 05:36:07;;;;;;;;;;;;;;;19.19;64.16;100354.84;7357459;19;19935;-60
2023/06/18 05:38:33;;;;;;;;;;;;;;;19.19;64.62;100355.69;7358117;19;20464;-60
2023/06/18 05:40:58;;;;;;;;;;;;;;;19.21;64.82;100347.66;7360133;19;19919;-60
2023/06/18 05:43:23;;;;;;;;;;;;;;;19.23;64.70;100345.75;7359787;19;19922;-60
2023/06/18 05:45:48;;;;;;;;;;;;;;;19.24;64.72;100344.81;7361031;19;19921;-60
2023/06/18 05:48:14;;;;;;;;;;;;;;;19.26;64.99;100345.56;7360458;19;19927;-60
2023/06/18 05:50:40;;;;;;;;;;;;;;;19.28;65.07;100342.81;7349782;19;19994;-60
2023/06/18 05:53:05;;;;;;;;;;;;;;;19.31;64.87;100342.59;7359683;19;20016;-60
2023/06/18 05:55:30;;;;;;;;;;;;;;;19.33;65.11;100346.88;7357179;19;20383;-60
2023/06/18 05:57:55;;;;;;;;;;;;;;;19.36;64.99;100346.69;7355829;19;19961;-60
2023/06/18 06:00:21;;;;;;;;;;;;;;;19.38;64.39;100342.13;7358012;19;19927;-60
2023/06/18 06:02:46;;;;;;;;;;;;;;;19.40;64.51;100342.84;7357986;19;20011;-59
2023/06/18 06:05:11;;;;;;;;;;;;;;;19.41;64.68;100341.94;7357382;19;19922;-60
2023/06/18 06:07:36;;;;;;;;;;;;;;;19.42;64.58;100348.94;7359875;19;19922;-60
2023/06/18 06:10:02;;;;;;;;;;;;;;;19.44;64.61;100357.59;7354712;19;19918;-60
2023/06/18 06:12:27;;;;;;;;;;;;;;;19.45;64.90;100340.75;7357471;19;19923;-60
2023/06/18 06:14:52;;;;;;;;;;;;;;;19.46;65.07;100338.97;7354044;19;19939;-59
2023/06/18 06:17:18;;;;;;;;;;;;;;;19.50;64.60;100342.25;7358711;19;19918;-60
2023/06/18 06:19:43;;;;;;;;;;;;;;;19.52;64.71;100345.69;7352843;19;20410;-60
2023/06/18 06:22:08;;;;;;;;;;;;;;;19.53;64.77;100345.56;7358143;19;19922;-60
2023/06/18 06:24:33;;;;;;;;;;;;;;;19.57;64.74;100348.88;7354530;19;19955;-60
2023/06/18 06:26:59;;;;;;;;;;;;;;;19.60;64.90;100343.38;7355251;19;19919;-60
2023/06/18 06:29:24;;;;;;;;;;;;;;;19.64;64.74;100344.91;7357227;19;20686;-60
2023/06/18 06:31:49;;;;;;;;;;;;;;;19.67;65.00;100344.69;7351302;19;19998;-60
2023/06/18 06:34:15;;;;;;;;;;;;;;;19.71;64.82;100343.53;7358334;19;20581;-60
2023/06/18 06:36:40;;;;;;;;;;;;;;;19.76;64.99;100343.22;7351492;19;19919;-59
2023/06/18 06:39:05;;;;;;;;;;;;;;;19.79;65.05;100343.88;7354973;19;19918;-59
2023/06/18 06:41:31;;;;;;;;;;;;;;;19.83;65.29;100350.69;7357795;19;19927;-60
2023/06/18 06:43:56;;;;;;;;;;;;;;;19.88;65.13;100343.25;7344254;19;19930;-60
2023/06/18 06:46:21;;;;;;;;;;;;;;;19.91;65.02;100336.91;7356066;19;19915;-59
2023/06/18 06:48:46;;;;;;;;;;;;;;;19.95;65.05;100349.84;7357379;19;19931;-60
2023/06/18 06:51:12;;;;;;;;;;;;;;;20.00;65.33;100343.38;7354414;19;19970;-60
2023/06/18 06:53:37;;;;;;;;;;;;;;;20.03;64.98;100345.84;7356831;19;19914;-60
2023/06/18 06:56:03;;;;;;;;;;;;;;;20.06;64.08;100345.63;7352570;19;19922;-60
2023/06/18 06:58:28;;;;;;;;;;;;;;;20.08;64.29;100354.34;7356100;19;19923;-59
2023/06/18 07:00:53;;;;;;;;;;;;;;;20.09;64.47;100350.72;7356258;19;20760;-60
2023/06/18 07:03:18;;;;;;;;;;;;;;;20.10;63.79;100350.59;7355589;19;19917;-60
2023/06/18 07:05:44;;;;;;;;;;;;;;;20.11;63.94;100344.34;7355198;19;19918;-60
2023/06/18 07:08:10;;;;;;;;;;;;;;;20.13;64.05;100346.91;7354266;19;19926;-60
2023/06/18 07:10:35;;;;;;;;;;;;;;;20.15;64.04;100350.28;7356958;19;19929;-60
2023/06/18 07:13:00;;;;;;;;;;;;;;;20.17;64.57;100351.03;7357715;19;19923;-60
2023/06/18 07:15:25;;;;;;;;;;;;;;;20.18;64.41;100343.00;7348832;19;20448;-60
2023/06/18 07:17:51;;;;;;;;;;;;;;;20.22;64.40;100346.25;7352819;19;19955;-60
2023/06/18 07:20:16;;;;;;;;;;;;;;;20.25;64.47;100338.09;7350110;19;19915;-60
2023/06/18 07:22:41;;;;;;;;;;;;;;;20.28;64.26;100329.09;7356356;19;19939;-60
2023/06/18 07:25:07;;;;;;;;;;;;;;;20.31;64.08;100329.72;7349638;19;19922;-59
2023/06/18 07:27:33;;;;;;;;;;;;;;;20.34;64.01;100318.91;7356501;19;19994;-60
2023/06/18 07:29:58;;;;;;;;;;;;;;;20.38;64.05;100331.03;7352860;19;20020;-60
2023/06/18 07:32:23;;;;;;;;;;;;;;;20.42;63.95;100329.81;7353370;19;20655;-60
2023/06/18 07:34:49;;;;;;;;;;;;;;;20.46;63.96;100331.34;7355246;19;20339;-60
2023/06/18 07:37:15;;;;;;;;;;;;;;;20.50;64.03;100328.50;7356572;19;19935;-60
2023/06/18 07:39:40;;;;;;;;;;;;;;;20.54;64.02;100316.72;7356342;19;19919;-60
2023/06/18 07:42:05;;;;;;;;;;;;;;;20.58;63.96;100331.44;7350126;19;19923;-60
2023/06/18 07:44:30;;;;;;;;;;;;;;;20.62;63.82;100322.31;7353712;19;19911;-60
2023/06/18 07:46:56;;;;;;;;;;;;;;;20.66;63.72;100331.75;7352040;19;19922;-60
2023/06/18 07:49:21;;;;;;;;;;;;;;;20.70;63.90;100330.59;7355764;19;19935;-60
2023/06/18 07:51:47;;;;;;;;;;;;;;;20.74;63.65;100316.16;7352722;19;19911;-60
2023/06/18 07:54:12;;;;;;;;;;;;;;;20.80;63.95;100321.03;7353591;19;19919;-60
2023/06/18 07:56:38;;;;;;;;;;;;;;;20.86;63.70;100323.22;7357884;19;20004;-60
2023/06/18 07:59:03;;;;;;;;;;;;;;;20.90;64.29;100319.41;7354558;19;20664;-61
2023/06/18 08:01:28;;;;;;;;;;;;;;;20.98;63.79;100327.69;7354813;19;19915;-60
2023/06/18 08:03:53;;;;;;;;;;;;;;;21.07;64.00;100334.09;7354165;19;20595;-60
2023/06/18 08:06:19;;;;;;;;;;;;;;;21.14;63.69;100332.72;7351520;19;19968;-60
2023/06/18 08:08:47;;;;;;;;;;;;;;;21.20;63.79;100326.13;7355822;19;19915;-60
2023/06/18 08:11:12;;;;;;;;;;;;;;;21.24;63.54;100332.91;7351298;19;20954;-60
2023/06/18 08:13:37;;;;;;;;;;;;;;;21.30;63.59;100334.25;7352115;19;19938;-60
2023/06/18 08:16:02;;;;;;;;;;;;;;;21.36;63.73;100334.69;7352118;19;19919;-60
2023/06/18 08:18:28;;;;;;;;;;;;;;;21.41;63.63;100331.69;7355326;19;19999;-60
2023/06/18 08:20:54;;;;;;;;;;;;;;;21.49;63.49;100335.47;7348240;19;19918;-60
2023/06/18 08:23:19;;;;;;;;;;;;;;;21.56;63.63;100329.72;7353908;19;20783;-60
2023/06/18 08:25:45;;;;;;;;;;;;;;;21.65;63.40;100327.22;7353467;19;19923;-60
2023/06/18 08:28:10;;;;;;;;;;;;;;;21.73;63.63;100331.94;7358469;19;19918;-60
2023/06/18 08:30:35;;;;;;;;;;;;;;;21.80;63.88;100332.34;7352901;19;20704;-60
2023/06/18 08:33:01;;;;;;;;;;;;;;;21.89;63.89;100331.63;7355695;19;19922;-60
2023/06/18 08:35:26;;;;;;;;;;;;;;;21.98;63.52;100326.47;7346278;19;19948;-60
2023/06/18 08:37:51;;;;;;;;;;;;;;;22.06;63.09;100328.53;7352723;19;19914;-60
2023/06/18 08:40:20;;;;;;;;;;;;;;;22.12;63.42;100332.56;7349668;19;20048;-60
2023/06/18 08:42:45;;;;;;;;;;;;;;;22.18;62.98;100337.41;7318004;19;20183;-60
2023/06/18 08:45:11;;;;;;;;;;;;;;;22.24;63.02;100336.94;7340746;19;20343;-60
2023/06/18 08:47:39;;;;;;;;;;;;;;;22.30;62.95;100330.28;7344148;19;19926;-60
2023/06/18 08:50:05;;;;;;;;;;;;;;;22.33;62.68;100325.59;7341960;19;19926;-60
2023/06/18 08:52:30;;;;;;;;;;;;;;;22.38;62.87;100320.75;7346172;19;19918;-60
2023/06/18 08:54:57;;;;;;;;;;;;;;;22.45;62.61;100332.59;7345538;19;20358;-60
2023/06/18 08:57:23;;;;;;;;;;;;;;;22.49;62.44;100320.75;7344813;19;19919;-60
2023/06/18 08:59:48;;;;;;;;;;;;;;;22.56;62.91;100323.81;7345906;19;20956;-60
2023/06/18 09:02:18;;;;;;;;;;;;;;;22.63;62.67;100321.50;7341942;19;20693;-60
2023/06/18 09:04:44;;;;;;;;;;;;;;;22.72;62.51;100318.13;7351941;19;19947;-60
2023/06/18 09:07:10;;;;;;;;;;;;;;;22.82;62.50;100313.75;7338044;19;19923;-60
2023/06/18 09:09:36;;;;;;;;;;;;;;;22.95;62.50;100301.16;7351743;19;19923;-60
2023/06/18 09:12:01;;;;;;;;;;;;;;;23.09;62.83;100296.53;7355982;19;19927;-60
2023/06/18 09:14:27;;;;;;;;;;;;;;;23.25;62.59;100299.63;7352545;19;19918;-60
2023/06/18 09:16:57;;;;;;;;;;;;;;;23.43;63.00;100290.13;7351007;19;19923;-60
2023/06/18 09:19:23;;;;;;;;;;;;;;;23.61;63.00;100302.88;7352468;19;19994;-60
2023/06/18 09:21:48;;;;;;;;;;;;;;;23.77;62.38;100296.19;7351352;19;22439;-60
2023/06/18 09:24:18;;;;;;;;;;;;;;;23.93;62.25;100298.41;7351468;19;19919;-60
2023/06/18 09:26:43;;;;;;;;;;;;;;;24.08;62.43;100291.75;7349322;19;20185;-60
2023/06/18 09:29:09;;;;;;;;;;;;;;;24.24;62.51;100293.13;7350454;19;20410;-60
2023/06/18 09:31:37;;;;;;;;;;;;;;;24.34;62.27;100291.34;7352097;19;20688;-60
2023/06/18 09:34:31;;;;;;;;;;;;;;;24.44;61.68;100281.59;7354399;19;20272;-60
2023/06/18 09:36:56;;;;;;;;;;;;;;;24.57;61.00;100284.84;7347511;19;19915;-60
2023/06/18 09:39:22;;;;;;;;;;;;;;;24.69;61.42;100290.09;7354211;19;19959;-60
2023/06/18 09:41:49;;;;;;;;;;;;;;;24.83;61.07;100282.53;7350887;19;19929;-60
2023/06/18 09:44:15;;;;;;;;;;;;;;;25.01;60.94;100285.41;7352498;19;19918;-60
2023/06/18 09:46:47;;;;;;;;;;;;;;;25.25;60.92;100289.56;7354487;19;19934;-60
2023/06/18 09:49:13;;;;;;;;;;;;;;;25.47;60.92;100286.59;7355180;19;20475;-60
2023/06/18 09:51:41;;;;;;;;;;;;;;;25.73;61.45;100288.69;7353979;19;19929;-61
2023/06/18 09:54:06;;;;;;;;;;;;;;;25.97;61.55;100278.41;7351958;19;19934;-61
2023/06/18 09:56:32;;;;;;;;;;;;;;;26.18;60.64;100283.56;7356566;19;19918;-61
2023/06/18 09:58:57;;;;;;;;;;;;;;;26.39;60.86;100283.34;7325815;19;19947;-61
2023/06/18 10:01:25;;;;;;;;;;;;;;;26.61;60.09;100272.31;7353932;19;19955;-60
2023/06/18 10:03:50;;;;;;;;;;;;;;;26.86;60.27;100269.91;7349453;19;19918;-60
2023/06/18 10:06:20;;;;;;;;;;;;;;;27.11;60.09;100268.34;7350415;19;19919;-61
2023/06/18 10:08:50;;;;;;;;;;;;;;;27.34;59.75;100269.59;7344029;19;19918;-61
2023/06/18 10:11:16;;;;;;;;;;;;;;;27.58;59.38;100266.28;7339550;19;19930;-61
2023/06/18 10:13:48;;;;;;;;;;;;;;;27.81;58.62;100260.44;7347553;19;20031;-61
2023/06/18 10:16:15;;;;;;;;;;;;;;;28.01;58.61;100267.28;7351002;19;19926;-61
2023/06/18 10:19:00;;;;;;;;;;;;;;;28.13;57.41;100260.69;7343480;19;19943;-61
2023/06/18 10:21:28;;;;;;;;;;;;;;;28.28;57.73;100258.22;7348345;19;19919;-61
2023/06/18 10:23:55;;;;;;;;;;;;;;;28.34;57.84;100262.16;7345340;19;20014;-61
2023/06/18 10:26:21;;;;;;;;;;;;;;;28.40;57.55;100262.34;7354123;19;19926;-61
2023/06/18 10:28:46;;;;;;;;;;;;;;;28.40;56.48;100261.50;7342883;19;20004;-61
2023/06/18 10:31:12;;;;;;;;;;;;;;;28.38;55.83;100258.13;7350763;19;19918;-61
2023/06/18 10:33:37;;;;;;;;;;;;;;;28.42;56.40;100259.50;7349247;19;19921;-61
2023/06/18 10:36:02;;;;;;;;;;;;;;;28.49;56.15;100260.56;7353566;19;19934;-61
2023/06/18 10:38:28;;;;;;;;;;;;;;;28.54;55.38;100258.22;7347467;19;19929;-61
2023/06/18 10:41:12;;;;;;;;;;;;;;;28.60;55.25;100256.72;7347336;19;20418;-61
2023/06/18 10:43:39;;;;;;;;;;;;;;;28.66;55.75;100250.72;7351549;19;20729;-61
2023/06/18 10:46:12;;;;;;;;;;;;;;;28.70;56.13;100254.75;7348478;19;19910;-61
2023/06/18 10:48:37;;;;;;;;;;;;;;;28.75;55.37;100246.22;7347175;19;19923;-61
2023/06/18 10:51:13;;;;;;;;;;;;;;;28.86;55.91;100256.66;7347827;19;19919;-61
2023/06/18 10:53:38;;;;;;;;;;;;;;;28.98;55.59;100249.97;7350708;19;19983;-61
2023/06/18 10:56:04;;;;;;;;;;;;;;;29.14;56.18;100260.75;7354902;19;20622;-61
2023/06/18 10:58:33;;;;;;;;;;;;;;;29.38;56.65;100267.19;7347402;19;20792;-61
2023/06/18 11:00:59;;;;;;;;;;;;;;;29.61;56.12;100262.84;7349441;19;20551;-63
2023/06/18 11:03:32;;;;;;;;;;;;;;;29.90;56.48;100256.91;7347452;19;19923;-62
2023/06/18 11:06:00;;;;;;;;;;;;;;;30.16;55.84;100259.44;7344617;19;19922;-62
2023/06/18 11:08:35;;;;;;;;;;;;;;;30.38;55.46;100252.47;7351998;19;19939;-63
2023/06/18 11:11:04;;;;;;;;;;;;;;;30.59;54.21;100251.88;7351127;19;19922;-63
2023/06/18 11:13:33;;;;;;;;;;;;;;;30.85;54.91;100250.75;7349908;19;20037;-63
2023/06/18 11:16:00;;;;;;;;;;;;;;;31.09;53.54;100252.47;7354385;19;20461;-63
2023/06/18 11:18:26;;;;;;;;;;;;;;;31.32;53.54;100236.28;7350490;19;19914;-63
2023/06/18 11:20:53;;;;;;;;;;;;;;;31.49;52.83;100237.84;7352134;19;19923;-62
2023/06/18 11:23:18;;;;;;;;;;;;;;;31.62;52.12;100238.06;7350015;19;19943;-63
2023/06/18 11:25:44;;;;;;;;;;;;;;;31.80;51.88;100240.44;7349858;19;20279;-63
2023/06/18 11:28:12;;;;;;;;;;;;;;;32.05;52.42;100243.75;7350537;19;21409;-63
2023/06/18 11:30:37;;;;;;;;;;;;;;;32.39;52.78;100236.97;7348504;19;19930;-63
2023/06/18 11:33:03;;;;;;;;;;;;;;;32.71;52.38;100231.13;7350811;19;22145;-63
2023/06/18 11:35:30;;;;;;;;;;;;;;;32.99;51.41;100219.59;7351305;19;20861;-63
2023/06/18 11:37:55;;;;;;;;;;;;;;;33.24;50.31;100218.19;7351463;19;19939;-63
2023/06/18 11:40:21;;;;;;;;;;;;;;;33.56;51.23;100222.25;7352044;19;19923;-63
2023/06/18 11:42:48;;;;;;;;;;;;;;;33.87;50.36;100222.91;7348587;19;20284;-63
2023/06/18 11:45:14;;;;;;;;;;;;;;;34.16;50.86;100233.50;7351503;19;20453;-63
2023/06/18 11:47:43;;;;;;;;;;;;;;;34.39;49.40;100221.53;7352295;19;19998;-62
2023/06/18 11:50:09;;;;;;;;;;;;;;;34.34;48.55;100182.31;7348648;19;19931;-62
2023/06/18 11:52:36;;;;;;;;;;;;;;;34.68;47.30;100215.84;7350857;19;19972;-63
2023/06/18 11:55:03;;;;;;;;;;;;;;;34.69;47.06;100217.53;7351951;19;19918;-62
2023/06/18 11:57:28;;;;;;;;;;;;;;;34.64;46.42;100214.59;7350788;19;19923;-63
2023/06/18 11:59:54;;;;;;;;;;;;;;;34.59;45.82;100211.66;7350265;19;19925;-63
2023/06/18 12:02:20;;;;;;;;;;;;;;;34.60;46.51;100213.31;7351643;19;19914;-63
2023/06/18 12:04:45;;;;;;;;;;;;;;;34.72;45.88;100219.81;7349661;19;19951;-63
2023/06/18 12:07:15;;;;;;;;;;;;;;;34.78;45.37;100216.31;7350067;19;19941;-63
2023/06/18 12:09:40;;;;;;;;;;;;;;;34.83;44.67;100207.53;7351526;19;20350;-63
2023/06/18 12:12:12;;;;;;;;;;;;;;;34.90;44.41;100208.38;7352564;19;19939;-62
2023/06/18 12:14:52;;;;;;;;;;;;;;;34.78;44.41;100183.75;7348917;19;19926;-63
2023/06/18 12:17:33;;;;;;;;;;;;;;;35.06;43.81;100213.44;7348519;19;19923;-63
2023/06/18 12:19:59;;;;;;;;;;;;;;;35.14;43.03;100217.84;7349005;19;20370;-63
2023/06/18 12:22:26;;;;;;;;;;;;;;;35.16;42.00;100214.94;7350643;19;20026;-61
2023/06/18 12:24:52;;;;;;;;;;;;;;;35.18;43.00;100210.97;7349913;19;19929;-62
2023/06/18 12:27:17;;;;;;;;;;;;;;;35.23;42.21;100203.03;7348090;19;19930;-63
2023/06/18 12:29:44;;;;;;;;;;;;;;;35.30;42.52;100197.63;7347719;19;19923;-62
2023/06/18 12:32:11;;;;;;;;;;;;;;;35.39;42.82;100201.78;7347515;19;20260;-63